sensor_id;sensor_type;location;lat;lon;timestamp;P1;durP1;ratioP1;P2;durP2;ratioP2
10170;SDS011;5127;50.922;6.988;2024-03-23T00:55:23;9.37;;;5.93;;
10170;SDS011;5127;50.922;6.988;2024-03-23T00:57:50;9.60;;;5.83;;
10170;SDS011;5127;50.922;6.988;2024-03-23T01:00:16;8.93;;;6.10;;
10170;SDS011;5127;50.922;6.988;2024-03-23T01:02:44;11.73;;;6.13;;
10170;SDS011;5127;50.922;6.988;2024-03-23T01:05:10;12.67;;;6.47;;
10170;SDS011;5127;50.922;6.988;2024-03-23T01:07:37;10.83;;;6.30;;
10170;SDS011;5127;50.922;6.988;2024-03-23T01:10:04;8.60;;;6.00;;
10170;SDS011;5127;50.922;6.988;2024-03-23T01:12:33;9.80;;;5.80;;
10170;SDS011;5127;50.922;6.988;2024-03-23T01:14:59;11.60;;;5.47;;
10170;SDS011;5127;50.922;6.988;2024-03-23T01:17:26;9.13;;;5.23;;
10170;SDS011;5127;50.922;6.988;2024-03-23T01:19:52;6.73;;;4.50;;
10170;SDS011;5127;50.922;6.988;2024-03-23T01:22:20;7.57;;;4.73;;
10170;SDS011;5127;50.922;6.988;2024-03-23T01:24:46;8.20;;;4.63;;
10170;SDS011;5127;50.922;6.988;2024-03-23T01:27:13;5.40;;;4.43;;
10170;SDS011;5127;50.922;6.988;2024-03-23T01:29:41;6.27;;;3.70;;
10170;SDS011;5127;50.922;6.988;2024-03-23T01:32:08;4.50;;;3.27;;
10170;SDS011;5127;50.922;6.988;2024-03-23T01:34:34;3.33;;;2.10;;
10170;SDS011;5127;50.922;6.988;2024-03-23T01:37:02;3.03;;;1.77;;
10170;SDS011;5127;50.922;6.988;2024-03-23T01:39:28;3.73;;;1.80;;
10170;SDS011;5127;50.922;6.988;2024-03-23T01:41:55;3.77;;;1.60;;
10170;SDS011;5127;50.922;6.988;2024-03-23T01:44:22;2.63;;;1.60;;
10170;SDS011;5127;50.922;6.988;2024-03-23T01:46:50;4.23;;;1.97;;
10170;SDS011;5127;50.922;6.988;2024-03-23T01:49:17;4.23;;;2.00;;
10170;SDS011;5127;50.922;6.988;2024-03-23T01:51:44;3.50;;;2.03;;
10170;SDS011;5127;50.922;6.988;2024-03-23T01:54:11;3.30;;;2.30;;
10170;SDS011;5127;50.922;6.988;2024-03-23T01:56:38;2.90;;;2.00;;
10170;SDS011;5127;50.922;6.988;2024-03-23T01:59:05;4.00;;;2.20;;
10170;SDS011;5127;50.922;6.988;2024-03-23T02:01:32;2.93;;;2.13;;
10170;SDS011;5127;50.922;6.988;2024-03-23T02:04:02;3.43;;;2.30;;
10170;SDS011;5127;50.922;6.988;2024-03-23T02:06:30;4.07;;;2.23;;
10170;SDS011;5127;50.922;6.988;2024-03-23T02:08:56;3.70;;;2.33;;
10170;SDS011;5127;50.922;6.988;2024-03-23T02:11:24;3.03;;;2.17;;
10170;SDS011;5127;50.922;6.988;2024-03-23T02:13:50;4.07;;;2.43;;
10170;SDS011;5127;50.922;6.988;2024-03-23T02:16:18;4.13;;;2.33;;
10170;SDS011;5127;50.922;6.988;2024-03-23T02:18:44;3.83;;;2.03;;
10170;SDS011;5127;50.922;6.988;2024-03-23T02:21:13;5.40;;;2.40;;
10170;SDS011;5127;50.922;6.988;2024-03-23T02:23:40;4.63;;;2.67;;
10170;SDS011;5127;50.922;6.988;2024-03-23T02:26:08;4.33;;;2.10;;
10170;SDS011;5127;50.922;6.988;2024-03-23T02:28:34;4.03;;;2.10;;
10170;SDS011;5127;50.922;6.988;2024-03-23T02:31:01;7.23;;;2.20;;
10170;SDS011;5127;50.922;6.988;2024-03-23T02:33:30;4.87;;;1.77;;
10170;SDS011;5127;50.922;6.988;2024-03-23T02:35:57;3.90;;;1.90;;
10170;SDS011;5127;50.922;6.988;2024-03-23T02:38:24;5.23;;;1.70;;
10170;SDS011;5127;50.922;6.988;2024-03-23T02:40:52;7.00;;;2.10;;
10170;SDS011;5127;50.922;6.988;2024-03-23T02:43:19;3.57;;;2.10;;
10170;SDS011;5127;50.922;6.988;2024-03-23T02:45:46;4.50;;;2.27;;
10170;SDS011;5127;50.922;6.988;2024-03-23T02:48:13;3.00;;;2.10;;
10170;SDS011;5127;50.922;6.988;2024-03-23T02:50:39;6.03;;;2.20;;
10170;SDS011;5127;50.922;6.988;2024-03-23T02:53:06;3.80;;;2.13;;
10170;SDS011;5127;50.922;6.988;2024-03-23T02:55:33;3.07;;;2.13;;
10170;SDS011;5127;50.922;6.988;2024-03-23T02:58:01;3.83;;;2.43;;
10170;SDS011;5127;50.922;6.988;2024-03-23T03:00:28;3.57;;;2.00;;
10170;SDS011;5127;50.922;6.988;2024-03-23T03:02:55;5.83;;;2.00;;
10170;SDS011;5127;50.922;6.988;2024-03-23T03:05:21;5.27;;;1.87;;
10170;SDS011;5127;50.922;6.988;2024-03-23T03:07:49;3.30;;;2.00;;
10170;SDS011;5127;50.922;6.988;2024-03-23T03:10:15;4.67;;;2.03;;
10170;SDS011;5127;50.922;6.988;2024-03-23T03:12:42;4.73;;;1.97;;
10170;SDS011;5127;50.922;6.988;2024-03-23T03:15:11;4.73;;;2.20;;
10170;SDS011;5127;50.922;6.988;2024-03-23T03:17:38;4.03;;;1.80;;
10170;SDS011;5127;50.922;6.988;2024-03-23T03:20:05;4.73;;;2.00;;
10170;SDS011;5127;50.922;6.988;2024-03-23T03:22:33;2.70;;;1.80;;
10170;SDS011;5127;50.922;6.988;2024-03-23T03:24:59;5.97;;;2.30;;
10170;SDS011;5127;50.922;6.988;2024-03-23T03:27:28;5.23;;;2.00;;
10170;SDS011;5127;50.922;6.988;2024-03-23T03:29:54;6.33;;;2.00;;
10170;SDS011;5127;50.922;6.988;2024-03-23T03:32:23;4.37;;;2.00;;
10170;SDS011;5127;50.922;6.988;2024-03-23T03:34:49;5.80;;;1.60;;
10170;SDS011;5127;50.922;6.988;2024-03-23T03:37:16;6.23;;;2.27;;
10170;SDS011;5127;50.922;6.988;2024-03-23T03:39:43;5.57;;;1.77;;
10170;SDS011;5127;50.922;6.988;2024-03-23T03:42:10;7.03;;;2.00;;
10170;SDS011;5127;50.922;6.988;2024-03-23T03:44:36;5.83;;;1.63;;
10170;SDS011;5127;50.922;6.988;2024-03-23T03:47:05;2.80;;;1.50;;
10170;SDS011;5127;50.922;6.988;2024-03-23T03:49:33;7.20;;;2.27;;
10170;SDS011;5127;50.922;6.988;2024-03-23T03:52:00;4.27;;;1.90;;
10170;SDS011;5127;50.922;6.988;2024-03-23T03:54:27;4.87;;;1.97;;
10170;SDS011;5127;50.922;6.988;2024-03-23T03:56:55;6.07;;;2.30;;
10170;SDS011;5127;50.922;6.988;2024-03-23T03:59:21;4.97;;;1.70;;
10170;SDS011;5127;50.922;6.988;2024-03-23T04:01:48;6.87;;;2.00;;
10170;SDS011;5127;50.922;6.988;2024-03-23T04:04:14;7.63;;;2.30;;
10170;SDS011;5127;50.922;6.988;2024-03-23T04:06:44;6.43;;;2.03;;
10170;SDS011;5127;50.922;6.988;2024-03-23T04:09:10;5.23;;;1.83;;
10170;SDS011;5127;50.922;6.988;2024-03-23T04:11:37;3.77;;;1.80;;
10170;SDS011;5127;50.922;6.988;2024-03-23T04:14:03;4.93;;;2.03;;
10170;SDS011;5127;50.922;6.988;2024-03-23T04:16:33;7.90;;;1.87;;
10170;SDS011;5127;50.922;6.988;2024-03-23T04:19:00;5.83;;;1.73;;
10170;SDS011;5127;50.922;6.988;2024-03-23T04:21:28;5.87;;;2.03;;
10170;SDS011;5127;50.922;6.988;2024-03-23T04:23:55;4.63;;;1.70;;
10170;SDS011;5127;50.922;6.988;2024-03-23T04:26:23;4.73;;;1.40;;
10170;SDS011;5127;50.922;6.988;2024-03-23T04:28:50;4.60;;;1.40;;
10170;SDS011;5127;50.922;6.988;2024-03-23T04:31:16;6.40;;;1.87;;
10170;SDS011;5127;50.922;6.988;2024-03-23T04:33:44;4.10;;;1.50;;
10170;SDS011;5127;50.922;6.988;2024-03-23T04:36:10;3.40;;;1.40;;
10170;SDS011;5127;50.922;6.988;2024-03-23T04:38:37;5.53;;;1.73;;
10170;SDS011;5127;50.922;6.988;2024-03-23T04:41:06;4.33;;;1.50;;
10170;SDS011;5127;50.922;6.988;2024-03-23T04:43:33;5.17;;;1.60;;
10170;SDS011;5127;50.922;6.988;2024-03-23T04:46:00;4.90;;;1.40;;
10170;SDS011;5127;50.922;6.988;2024-03-23T04:48:28;5.30;;;1.60;;
10170;SDS011;5127;50.922;6.988;2024-03-23T04:50:55;4.63;;;1.20;;
10170;SDS011;5127;50.922;6.988;2024-03-23T04:53:23;4.20;;;1.33;;
10170;SDS011;5127;50.922;6.988;2024-03-23T04:55:54;3.50;;;1.07;;
10170;SDS011;5127;50.922;6.988;2024-03-23T04:58:23;2.10;;;1.30;;
10170;SDS011;5127;50.922;6.988;2024-03-23T05:00:52;5.80;;;1.80;;
10170;SDS011;5127;50.922;6.988;2024-03-23T05:03:20;4.97;;;1.83;;
10170;SDS011;5127;50.922;6.988;2024-03-23T05:05:47;5.57;;;1.63;;
10170;SDS011;5127;50.922;6.988;2024-03-23T05:08:14;4.67;;;1.60;;
10170;SDS011;5127;50.922;6.988;2024-03-23T05:10:41;3.63;;;1.40;;
10170;SDS011;5127;50.922;6.988;2024-03-23T05:13:09;3.03;;;1.40;;
10170;SDS011;5127;50.922;6.988;2024-03-23T05:15:37;6.50;;;2.10;;
10170;SDS011;5127;50.922;6.988;2024-03-23T05:18:04;4.20;;;1.80;;
10170;SDS011;5127;50.922;6.988;2024-03-23T05:20:31;3.97;;;1.83;;
10170;SDS011;5127;50.922;6.988;2024-03-23T05:22:59;5.10;;;1.97;;
10170;SDS011;5127;50.922;6.988;2024-03-23T05:25:25;7.00;;;1.83;;
10170;SDS011;5127;50.922;6.988;2024-03-23T05:27:53;6.40;;;1.97;;
10170;SDS011;5127;50.922;6.988;2024-03-23T05:30:19;7.30;;;1.67;;
10170;SDS011;5127;50.922;6.988;2024-03-23T05:32:47;6.73;;;1.57;;
10170;SDS011;5127;50.922;6.988;2024-03-23T05:35:14;4.20;;;1.43;;
10170;SDS011;5127;50.922;6.988;2024-03-23T05:37:41;4.13;;;1.73;;
10170;SDS011;5127;50.922;6.988;2024-03-23T05:40:08;4.33;;;1.60;;
10170;SDS011;5127;50.922;6.988;2024-03-23T05:42:36;3.70;;;1.60;;
10170;SDS011;5127;50.922;6.988;2024-03-23T05:45:02;6.27;;;1.70;;
10170;SDS011;5127;50.922;6.988;2024-03-23T05:47:32;5.37;;;1.90;;
10170;SDS011;5127;50.922;6.988;2024-03-23T05:49:59;6.20;;;1.80;;
10170;SDS011;5127;50.922;6.988;2024-03-23T05:52:27;7.27;;;1.73;;
10170;SDS011;5127;50.922;6.988;2024-03-23T05:54:54;5.50;;;1.77;;
10170;SDS011;5127;50.922;6.988;2024-03-23T05:57:21;4.77;;;1.60;;
10170;SDS011;5127;50.922;6.988;2024-03-23T05:59:49;6.10;;;1.80;;
10170;SDS011;5127;50.922;6.988;2024-03-23T06:02:15;5.47;;;1.70;;
10170;SDS011;5127;50.922;6.988;2024-03-23T06:04:42;4.53;;;1.73;;
10170;SDS011;5127;50.922;6.988;2024-03-23T06:07:12;4.80;;;1.93;;
10170;SDS011;5127;50.922;6.988;2024-03-23T06:09:40;4.17;;;1.70;;
10170;SDS011;5127;50.922;6.988;2024-03-23T06:12:07;6.67;;;1.83;;
10170;SDS011;5127;50.922;6.988;2024-03-23T06:14:34;2.93;;;1.63;;
10170;SDS011;5127;50.922;6.988;2024-03-23T06:17:01;4.03;;;1.50;;
10170;SDS011;5127;50.922;6.988;2024-03-23T06:19:28;6.07;;;2.03;;
10170;SDS011;5127;50.922;6.988;2024-03-23T06:21:54;8.57;;;2.00;;
10170;SDS011;5127;50.922;6.988;2024-03-23T06:24:23;5.83;;;1.90;;
10170;SDS011;5127;50.922;6.988;2024-03-23T06:26:50;6.00;;;2.23;;
10170;SDS011;5127;50.922;6.988;2024-03-23T06:29:17;5.07;;;1.60;;
10170;SDS011;5127;50.922;6.988;2024-03-23T06:31:44;4.87;;;1.63;;
10170;SDS011;5127;50.922;6.988;2024-03-23T06:34:19;5.00;;;1.83;;
10170;SDS011;5127;50.922;6.988;2024-03-23T06:36:47;5.13;;;1.77;;
10170;SDS011;5127;50.922;6.988;2024-03-23T06:39:13;4.80;;;1.80;;
10170;SDS011;5127;50.922;6.988;2024-03-23T06:41:42;5.23;;;1.90;;
10170;SDS011;5127;50.922;6.988;2024-03-23T06:44:08;4.47;;;1.80;;
10170;SDS011;5127;50.922;6.988;2024-03-23T06:46:35;5.07;;;1.83;;
10170;SDS011;5127;50.922;6.988;2024-03-23T06:49:02;5.93;;;2.00;;
10170;SDS011;5127;50.922;6.988;2024-03-23T06:51:29;6.97;;;2.30;;
10170;SDS011;5127;50.922;6.988;2024-03-23T06:53:55;6.23;;;2.20;;
10170;SDS011;5127;50.922;6.988;2024-03-23T06:56:23;5.03;;;1.90;;
10170;SDS011;5127;50.922;6.988;2024-03-23T06:58:50;6.67;;;2.40;;
10170;SDS011;5127;50.922;6.988;2024-03-23T07:01:17;7.03;;;2.47;;
10170;SDS011;5127;50.922;6.988;2024-03-23T07:03:44;9.20;;;2.83;;
10170;SDS011;5127;50.922;6.988;2024-03-23T07:06:11;5.33;;;1.97;;
10170;SDS011;5127;50.922;6.988;2024-03-23T07:08:37;5.07;;;2.20;;
10170;SDS011;5127;50.922;6.988;2024-03-23T07:11:04;6.37;;;2.20;;
10170;SDS011;5127;50.922;6.988;2024-03-23T07:13:31;7.63;;;2.60;;
10170;SDS011;5127;50.922;6.988;2024-03-23T07:15:59;8.60;;;2.50;;
10170;SDS011;5127;50.922;6.988;2024-03-23T07:18:26;6.37;;;2.80;;
10170;SDS011;5127;50.922;6.988;2024-03-23T07:20:53;7.23;;;2.63;;
10170;SDS011;5127;50.922;6.988;2024-03-23T07:23:20;8.90;;;2.80;;
10170;SDS011;5127;50.922;6.988;2024-03-23T07:25:55;6.43;;;3.03;;
10170;SDS011;5127;50.922;6.988;2024-03-23T07:28:22;11.07;;;2.90;;
10170;SDS011;5127;50.922;6.988;2024-03-23T07:31:01;8.27;;;3.13;;
10170;SDS011;5127;50.922;6.988;2024-03-23T07:33:28;7.90;;;3.20;;
10170;SDS011;5127;50.922;6.988;2024-03-23T07:35:55;8.90;;;3.70;;
10170;SDS011;5127;50.922;6.988;2024-03-23T07:38:21;7.23;;;3.87;;
10170;SDS011;5127;50.922;6.988;2024-03-23T07:40:49;7.27;;;3.80;;
10170;SDS011;5127;50.922;6.988;2024-03-23T07:43:20;8.57;;;3.80;;
10170;SDS011;5127;50.922;6.988;2024-03-23T07:45:51;9.60;;;4.07;;
10170;SDS011;5127;50.922;6.988;2024-03-23T07:48:20;12.70;;;3.97;;
10170;SDS011;5127;50.922;6.988;2024-03-23T07:50:55;7.30;;;3.70;;
10170;SDS011;5127;50.922;6.988;2024-03-23T07:53:23;8.77;;;4.00;;
10170;SDS011;5127;50.922;6.988;2024-03-23T07:55:56;6.20;;;3.60;;
10170;SDS011;5127;50.922;6.988;2024-03-23T07:58:24;6.40;;;3.77;;
10170;SDS011;5127;50.922;6.988;2024-03-23T08:00:52;7.70;;;3.97;;
10170;SDS011;5127;50.922;6.988;2024-03-23T08:03:19;11.03;;;4.40;;
10170;SDS011;5127;50.922;6.988;2024-03-23T08:05:47;9.23;;;4.33;;
10170;SDS011;5127;50.922;6.988;2024-03-23T08:08:14;8.73;;;4.37;;
10170;SDS011;5127;50.922;6.988;2024-03-23T08:10:48;7.27;;;4.37;;
10170;SDS011;5127;50.922;6.988;2024-03-23T08:13:15;6.70;;;3.90;;
10170;SDS011;5127;50.922;6.988;2024-03-23T08:15:42;6.33;;;3.73;;
10170;SDS011;5127;50.922;6.988;2024-03-23T08:18:09;6.70;;;3.90;;
10170;SDS011;5127;50.922;6.988;2024-03-23T08:20:38;6.87;;;3.97;;
10170;SDS011;5127;50.922;6.988;2024-03-23T08:23:05;7.60;;;3.73;;
10170;SDS011;5127;50.922;6.988;2024-03-23T08:25:33;5.90;;;3.70;;
10170;SDS011;5127;50.922;6.988;2024-03-23T08:28:00;5.67;;;2.90;;
10170;SDS011;5127;50.922;6.988;2024-03-23T08:30:27;6.40;;;2.47;;
10170;SDS011;5127;50.922;6.988;2024-03-23T08:32:54;4.93;;;1.80;;
10170;SDS011;5127;50.922;6.988;2024-03-23T08:35:21;5.43;;;2.07;;
10170;SDS011;5127;50.922;6.988;2024-03-23T08:37:49;6.13;;;2.47;;
10170;SDS011;5127;50.922;6.988;2024-03-23T08:40:16;3.40;;;1.87;;
10170;SDS011;5127;50.922;6.988;2024-03-23T08:42:43;3.53;;;2.13;;
10170;SDS011;5127;50.922;6.988;2024-03-23T08:45:10;5.70;;;2.13;;
10170;SDS011;5127;50.922;6.988;2024-03-23T08:47:36;5.13;;;2.30;;
10170;SDS011;5127;50.922;6.988;2024-03-23T08:50:04;5.40;;;2.40;;
10170;SDS011;5127;50.922;6.988;2024-03-23T08:52:31;6.27;;;2.80;;
10170;SDS011;5127;50.922;6.988;2024-03-23T08:54:59;4.80;;;2.83;;
10170;SDS011;5127;50.922;6.988;2024-03-23T08:57:26;5.07;;;2.50;;
10170;SDS011;5127;50.922;6.988;2024-03-23T08:59:54;6.83;;;3.47;;
10170;SDS011;5127;50.922;6.988;2024-03-23T09:02:20;5.13;;;3.33;;
10170;SDS011;5127;50.922;6.988;2024-03-23T09:04:47;8.20;;;3.60;;
10170;SDS011;5127;50.922;6.988;2024-03-23T09:07:13;8.10;;;4.33;;
10170;SDS011;5127;50.922;6.988;2024-03-23T09:09:41;10.27;;;4.10;;
10170;SDS011;5127;50.922;6.988;2024-03-23T09:12:08;6.83;;;3.70;;
10170;SDS011;5127;50.922;6.988;2024-03-23T09:14:35;8.17;;;3.87;;
10170;SDS011;5127;50.922;6.988;2024-03-23T09:17:02;9.00;;;3.77;;
10170;SDS011;5127;50.922;6.988;2024-03-23T09:19:29;6.67;;;3.70;;
10170;SDS011;5127;50.922;6.988;2024-03-23T09:21:56;7.83;;;3.63;;
10170;SDS011;5127;50.922;6.988;2024-03-23T09:24:23;7.10;;;3.57;;
10170;SDS011;5127;50.922;6.988;2024-03-23T09:26:51;6.40;;;3.43;;
10170;SDS011;5127;50.922;6.988;2024-03-23T09:29:20;7.90;;;3.40;;
10170;SDS011;5127;50.922;6.988;2024-03-23T09:31:46;8.17;;;3.27;;
10170;SDS011;5127;50.922;6.988;2024-03-23T09:34:14;9.33;;;3.20;;
10170;SDS011;5127;50.922;6.988;2024-03-23T09:36:41;4.93;;;2.70;;
10170;SDS011;5127;50.922;6.988;2024-03-23T09:39:08;8.07;;;2.67;;
10170;SDS011;5127;50.922;6.988;2024-03-23T09:41:35;6.40;;;3.00;;
10170;SDS011;5127;50.922;6.988;2024-03-23T09:44:03;9.13;;;2.90;;
10170;SDS011;5127;50.922;6.988;2024-03-23T09:46:32;6.23;;;2.67;;
10170;SDS011;5127;50.922;6.988;2024-03-23T09:49:02;6.97;;;2.80;;
10170;SDS011;5127;50.922;6.988;2024-03-23T09:51:30;6.77;;;2.43;;
10170;SDS011;5127;50.922;6.988;2024-03-23T09:53:57;5.80;;;2.00;;
10170;SDS011;5127;50.922;6.988;2024-03-23T09:56:24;6.00;;;2.30;;
10170;SDS011;5127;50.922;6.988;2024-03-23T09:58:51;4.73;;;2.47;;
10170;SDS011;5127;50.922;6.988;2024-03-23T10:01:25;4.50;;;2.00;;
10170;SDS011;5127;50.922;6.988;2024-03-23T10:03:54;7.00;;;2.00;;
10170;SDS011;5127;50.922;6.988;2024-03-23T10:06:21;5.17;;;2.10;;
10170;SDS011;5127;50.922;6.988;2024-03-23T10:08:50;5.13;;;2.07;;
10170;SDS011;5127;50.922;6.988;2024-03-23T10:11:17;3.70;;;1.87;;
10170;SDS011;5127;50.922;6.988;2024-03-23T10:13:46;5.63;;;1.70;;
10170;SDS011;5127;50.922;6.988;2024-03-23T10:16:20;3.37;;;1.63;;
10170;SDS011;5127;50.922;6.988;2024-03-23T10:18:48;3.97;;;1.77;;
10170;SDS011;5127;50.922;6.988;2024-03-23T10:21:16;3.93;;;1.47;;
10170;SDS011;5127;50.922;6.988;2024-03-23T10:23:45;2.93;;;1.33;;
10170;SDS011;5127;50.922;6.988;2024-03-23T10:26:12;4.13;;;1.40;;
10170;SDS011;5127;50.922;6.988;2024-03-23T10:28:53;4.77;;;1.40;;
10170;SDS011;5127;50.922;6.988;2024-03-23T10:31:22;2.80;;;1.33;;
10170;SDS011;5127;50.922;6.988;2024-03-23T10:33:50;3.33;;;1.33;;
10170;SDS011;5127;50.922;6.988;2024-03-23T10:36:18;3.80;;;1.33;;
10170;SDS011;5127;50.922;6.988;2024-03-23T10:38:47;4.70;;;1.50;;
10170;SDS011;5127;50.922;6.988;2024-03-23T10:41:14;2.67;;;1.20;;
10170;SDS011;5127;50.922;6.988;2024-03-23T10:43:42;1.40;;;0.83;;
10170;SDS011;5127;50.922;6.988;2024-03-23T10:46:10;2.40;;;0.87;;
10170;SDS011;5127;50.922;6.988;2024-03-23T10:48:38;2.30;;;1.17;;
10170;SDS011;5127;50.922;6.988;2024-03-23T10:51:05;3.93;;;1.03;;
10170;SDS011;5127;50.922;6.988;2024-03-23T10:53:35;4.87;;;1.23;;
10170;SDS011;5127;50.922;6.988;2024-03-23T10:56:02;4.03;;;1.40;;
10170;SDS011;5127;50.922;6.988;2024-03-23T10:58:32;3.00;;;1.20;;
10170;SDS011;5127;50.922;6.988;2024-03-23T11:01:03;4.60;;;1.40;;
10170;SDS011;5127;50.922;6.988;2024-03-23T11:03:31;4.20;;;1.53;;
10170;SDS011;5127;50.922;6.988;2024-03-23T11:05:59;5.27;;;1.47;;
10170;SDS011;5127;50.922;6.988;2024-03-23T11:08:30;4.53;;;1.60;;
10170;SDS011;5127;50.922;6.988;2024-03-23T11:11:14;4.27;;;1.40;;
10170;SDS011;5127;50.922;6.988;2024-03-23T11:13:44;3.47;;;1.43;;
10170;SDS011;5127;50.922;6.988;2024-03-23T11:16:13;3.70;;;1.30;;
10170;SDS011;5127;50.922;6.988;2024-03-23T11:18:41;3.67;;;1.20;;
10170;SDS011;5127;50.922;6.988;2024-03-23T11:21:09;4.10;;;1.50;;
10170;SDS011;5127;50.922;6.988;2024-03-23T11:23:37;3.10;;;1.70;;
10170;SDS011;5127;50.922;6.988;2024-03-23T11:26:07;2.77;;;1.30;;
10170;SDS011;5127;50.922;6.988;2024-03-23T11:28:35;3.90;;;1.30;;
10170;SDS011;5127;50.922;6.988;2024-03-23T11:31:08;3.13;;;1.67;;
10170;SDS011;5127;50.922;6.988;2024-03-23T11:33:36;2.73;;;1.10;;
10170;SDS011;5127;50.922;6.988;2024-03-23T11:36:04;2.37;;;1.00;;
10170;SDS011;5127;50.922;6.988;2024-03-23T11:38:39;1.47;;;0.83;;
10170;SDS011;5127;50.922;6.988;2024-03-23T11:41:06;2.83;;;0.97;;
10170;SDS011;5127;50.922;6.988;2024-03-23T11:43:33;1.57;;;0.73;;
10170;SDS011;5127;50.922;6.988;2024-03-23T11:46:01;2.43;;;0.90;;
10170;SDS011;5127;50.922;6.988;2024-03-23T11:48:30;1.40;;;0.90;;
10170;SDS011;5127;50.922;6.988;2024-03-23T11:50:57;1.83;;;1.00;;
10170;SDS011;5127;50.922;6.988;2024-03-23T11:53:25;2.07;;;0.80;;
10170;SDS011;5127;50.922;6.988;2024-03-23T11:55:56;2.00;;;0.80;;
10170;SDS011;5127;50.922;6.988;2024-03-23T11:58:24;2.47;;;1.20;;
10170;SDS011;5127;50.922;6.988;2024-03-23T12:00:55;2.27;;;1.20;;
10170;SDS011;5127;50.922;6.988;2024-03-23T12:03:24;3.47;;;1.17;;
10170;SDS011;5127;50.922;6.988;2024-03-23T12:05:52;3.57;;;1.40;;
10170;SDS011;5127;50.922;6.988;2024-03-23T12:08:21;3.03;;;1.00;;
10170;SDS011;5127;50.922;6.988;2024-03-23T12:10:49;2.20;;;1.20;;
10170;SDS011;5127;50.922;6.988;2024-03-23T12:13:18;4.77;;;1.00;;
10170;SDS011;5127;50.922;6.988;2024-03-23T12:15:46;1.67;;;0.80;;
10170;SDS011;5127;50.922;6.988;2024-03-23T12:18:16;2.33;;;0.90;;
10170;SDS011;5127;50.922;6.988;2024-03-23T12:20:43;1.60;;;0.90;;
10170;SDS011;5127;50.922;6.988;2024-03-23T12:23:11;1.93;;;0.77;;
10170;SDS011;5127;50.922;6.988;2024-03-23T12:25:41;1.60;;;1.00;;
10170;SDS011;5127;50.922;6.988;2024-03-23T12:28:08;2.90;;;1.20;;
10170;SDS011;5127;50.922;6.988;2024-03-23T12:30:35;1.90;;;1.10;;
10170;SDS011;5127;50.922;6.988;2024-03-23T12:33:05;2.30;;;1.40;;
10170;SDS011;5127;50.922;6.988;2024-03-23T12:35:33;1.73;;;1.07;;
10170;SDS011;5127;50.922;6.988;2024-03-23T12:38:00;3.90;;;0.83;;
10170;SDS011;5127;50.922;6.988;2024-03-23T12:40:27;2.10;;;1.10;;
10170;SDS011;5127;50.922;6.988;2024-03-23T12:42:54;2.00;;;1.43;;
10170;SDS011;5127;50.922;6.988;2024-03-23T12:45:21;0.90;;;0.70;;
10170;SDS011;5127;50.922;6.988;2024-03-23T12:47:49;2.43;;;0.60;;
10170;SDS011;5127;50.922;6.988;2024-03-23T12:50:18;1.03;;;0.60;;
10170;SDS011;5127;50.922;6.988;2024-03-23T12:52:47;1.50;;;0.80;;
10170;SDS011;5127;50.922;6.988;2024-03-23T12:55:13;1.70;;;0.70;;
10170;SDS011;5127;50.922;6.988;2024-03-23T12:57:41;1.07;;;0.60;;
10170;SDS011;5127;50.922;6.988;2024-03-23T13:00:07;1.03;;;0.50;;
10170;SDS011;5127;50.922;6.988;2024-03-23T13:02:37;0.63;;;0.50;;
10170;SDS011;5127;50.922;6.988;2024-03-23T13:05:04;0.73;;;0.50;;
10170;SDS011;5127;50.922;6.988;2024-03-23T13:07:33;0.90;;;0.40;;
10170;SDS011;5127;50.922;6.988;2024-03-23T13:10:02;0.80;;;0.50;;
10170;SDS011;5127;50.922;6.988;2024-03-23T13:12:30;1.40;;;0.70;;
10170;SDS011;5127;50.922;6.988;2024-03-23T13:14:56;1.33;;;0.70;;
10170;SDS011;5127;50.922;6.988;2024-03-23T13:17:24;3.30;;;0.80;;
10170;SDS011;5127;50.922;6.988;2024-03-23T13:19:52;1.33;;;0.80;;
10170;SDS011;5127;50.922;6.988;2024-03-23T13:22:19;2.13;;;0.90;;
10170;SDS011;5127;50.922;6.988;2024-03-23T13:24:46;1.33;;;0.80;;
10170;SDS011;5127;50.922;6.988;2024-03-23T13:27:14;5.57;;;1.07;;
10170;SDS011;5127;50.922;6.988;2024-03-23T13:29:41;1.13;;;0.70;;
10170;SDS011;5127;50.922;6.988;2024-03-23T13:32:08;1.60;;;0.87;;
10170;SDS011;5127;50.922;6.988;2024-03-23T13:34:34;1.90;;;0.80;;
10170;SDS011;5127;50.922;6.988;2024-03-23T13:37:02;2.90;;;1.30;;
10170;SDS011;5127;50.922;6.988;2024-03-23T13:39:28;2.20;;;1.17;;
10170;SDS011;5127;50.922;6.988;2024-03-23T13:41:57;2.87;;;1.37;;
10170;SDS011;5127;50.922;6.988;2024-03-23T13:44:25;1.70;;;1.10;;
10170;SDS011;5127;50.922;6.988;2024-03-23T13:46:52;2.70;;;1.70;;
10170;SDS011;5127;50.922;6.988;2024-03-23T13:49:24;3.27;;;1.83;;
10170;SDS011;5127;50.922;6.988;2024-03-23T13:51:53;5.47;;;1.83;;
10170;SDS011;5127;50.922;6.988;2024-03-23T13:54:23;3.80;;;1.50;;
10170;SDS011;5127;50.922;6.988;2024-03-23T13:56:51;2.60;;;1.57;;
10170;SDS011;5127;50.922;6.988;2024-03-23T13:59:17;2.17;;;1.47;;
10170;SDS011;5127;50.922;6.988;2024-03-23T14:01:46;2.33;;;1.57;;
10170;SDS011;5127;50.922;6.988;2024-03-23T14:04:12;1.87;;;1.50;;
10170;SDS011;5127;50.922;6.988;2024-03-23T14:06:42;2.03;;;1.50;;
10170;SDS011;5127;50.922;6.988;2024-03-23T14:09:10;2.70;;;1.37;;
10170;SDS011;5127;50.922;6.988;2024-03-23T14:11:38;2.40;;;0.73;;
10170;SDS011;5127;50.922;6.988;2024-03-23T14:14:06;2.87;;;0.90;;
10170;SDS011;5127;50.922;6.988;2024-03-23T14:16:33;1.67;;;0.90;;
10170;SDS011;5127;50.922;6.988;2024-03-23T14:19:01;2.47;;;0.57;;
10170;SDS011;5127;50.922;6.988;2024-03-23T14:21:30;1.13;;;0.80;;
10170;SDS011;5127;50.922;6.988;2024-03-23T14:23:56;0.67;;;0.67;;
10170;SDS011;5127;50.922;6.988;2024-03-23T14:26:24;2.87;;;0.93;;
10170;SDS011;5127;50.922;6.988;2024-03-23T14:28:50;1.97;;;1.00;;
10170;SDS011;5127;50.922;6.988;2024-03-23T14:31:18;1.93;;;0.90;;
10170;SDS011;5127;50.922;6.988;2024-03-23T14:33:44;3.83;;;1.67;;
10170;SDS011;5127;50.922;6.988;2024-03-23T14:36:14;1.07;;;0.97;;
10170;SDS011;5127;50.922;6.988;2024-03-23T14:38:40;1.53;;;1.00;;
10170;SDS011;5127;50.922;6.988;2024-03-23T14:41:08;1.57;;;0.97;;
10170;SDS011;5127;50.922;6.988;2024-03-23T14:43:34;2.13;;;1.03;;
10170;SDS011;5127;50.922;6.988;2024-03-23T14:46:07;2.37;;;1.20;;
10170;SDS011;5127;50.922;6.988;2024-03-23T14:48:35;1.80;;;1.30;;
10170;SDS011;5127;50.922;6.988;2024-03-23T14:51:02;2.70;;;1.50;;
10170;SDS011;5127;50.922;6.988;2024-03-23T14:53:31;1.40;;;1.03;;
10170;SDS011;5127;50.922;6.988;2024-03-23T14:55:59;1.30;;;0.93;;
10170;SDS011;5127;50.922;6.988;2024-03-23T14:58:26;2.03;;;1.23;;
10170;SDS011;5127;50.922;6.988;2024-03-23T15:00:59;3.40;;;1.10;;
10170;SDS011;5127;50.922;6.988;2024-03-23T15:03:26;3.40;;;1.20;;
10170;SDS011;5127;50.922;6.988;2024-03-23T15:05:53;1.47;;;1.10;;
10170;SDS011;5127;50.922;6.988;2024-03-23T15:08:20;2.03;;;0.90;;
10170;SDS011;5127;50.922;6.988;2024-03-23T15:10:49;3.03;;;1.20;;
10170;SDS011;5127;50.922;6.988;2024-03-23T15:13:16;0.90;;;0.80;;
10170;SDS011;5127;50.922;6.988;2024-03-23T15:15:43;1.17;;;0.80;;
10170;SDS011;5127;50.922;6.988;2024-03-23T15:18:10;1.27;;;0.77;;
10170;SDS011;5127;50.922;6.988;2024-03-23T15:20:40;1.93;;;1.00;;
10170;SDS011;5127;50.922;6.988;2024-03-23T15:23:07;2.10;;;1.10;;
10170;SDS011;5127;50.922;6.988;2024-03-23T15:25:34;1.47;;;0.80;;
10170;SDS011;5127;50.922;6.988;2024-03-23T15:28:02;1.70;;;1.00;;
10170;SDS011;5127;50.922;6.988;2024-03-23T15:30:29;1.20;;;1.00;;
10170;SDS011;5127;50.922;6.988;2024-03-23T15:32:56;2.90;;;2.20;;
10170;SDS011;5127;50.922;6.988;2024-03-23T15:35:23;2.47;;;1.50;;
10170;SDS011;5127;50.922;6.988;2024-03-23T15:37:49;1.90;;;1.30;;
10170;SDS011;5127;50.922;6.988;2024-03-23T15:40:17;3.03;;;1.50;;
10170;SDS011;5127;50.922;6.988;2024-03-23T15:42:44;2.63;;;1.50;;
10170;SDS011;5127;50.922;6.988;2024-03-23T15:45:12;2.57;;;1.57;;
10170;SDS011;5127;50.922;6.988;2024-03-23T15:47:39;2.23;;;1.20;;
10170;SDS011;5127;50.922;6.988;2024-03-23T15:50:06;2.70;;;1.47;;
10170;SDS011;5127;50.922;6.988;2024-03-23T15:52:34;3.07;;;1.33;;
10170;SDS011;5127;50.922;6.988;2024-03-23T15:55:03;2.80;;;1.03;;
10170;SDS011;5127;50.922;6.988;2024-03-23T15:57:32;3.37;;;1.40;;